Kirby, Texas
Current Conditions -  °F | °C
As of 5:51 PM on Saturday 20 Dec 2014 (Local Time) from KSAT Reporting Station
Overcast Overcast  
Wind Chill: 54°   Ceiling: 2600
Heat Index: 54°   Visibility: 10mi
Dew Point: 44°   Wind: 10mph
Humidity: 69%   Direction: 80°E
Pressure: 30.14"   Gusts: NA
Location:  29.4397°N, 98.3901°W
Report Text: KSAT 202351Z 08009KT 10SM OVC026 12/07 A3014 RMK AO2 SLP198 T01220067 10156 20122 53003
Loading
Personal Weather Stations






























Interactive Weather Map New forecast layout! Learn more

10-Day Weather Forecast

Advertisements
Track Severe Weather on mobile